Terminal Aerodrome Forecast
Issued by NWS

Home | Current Version | Previous Version | Text Only | Print | Product List | Glossary On
Versions: 1 2 3 4 5 6 7 8 9 10 11 12 13
000
FTUS41 KRNK 280544 AAA
TAFBCB
TAF AMD
KBCB 280544Z 2806/2906 00000KT P6SM SCT110
     FM281200 00000KT 2SM BR BKN040
     FM281600 24004KT P6SM BKN070
     FM282000 26006KT P6SM VCSH OVC060
     FM290300 25005KT P6SM BKN200=

USA.gov is the U.S. government's official web portal to all federal, state and local government web resources and services.